sensor_id;sensor_type;location;lat;lon;timestamp;P1;durP1;ratioP1;P2;durP2;ratioP2
19235;SDS011;9752;54.270;12.470;2022-12-11T00:02:34;33.50;;;19.23;;
19235;SDS011;9752;54.270;12.470;2022-12-11T00:07:37;40.53;;;22.53;;
19235;SDS011;9752;54.270;12.470;2022-12-11T00:12:39;40.73;;;21.90;;
19235;SDS011;9752;54.270;12.470;2022-12-11T00:17:40;40.87;;;20.17;;
19235;SDS011;9752;54.270;12.470;2022-12-11T00:22:43;39.07;;;21.17;;
19235;SDS011;9752;54.270;12.470;2022-12-11T00:27:45;44.87;;;22.33;;
19235;SDS011;9752;54.270;12.470;2022-12-11T00:32:47;37.00;;;19.80;;
19235;SDS011;9752;54.270;12.470;2022-12-11T00:37:53;47.03;;;21.90;;
19235;SDS011;9752;54.270;12.470;2022-12-11T00:42:56;40.17;;;21.80;;
19235;SDS011;9752;54.270;12.470;2022-12-11T00:47:58;43.17;;;21.27;;
19235;SDS011;9752;54.270;12.470;2022-12-11T00:53:01;37.77;;;20.73;;
19235;SDS011;9752;54.270;12.470;2022-12-11T00:58:03;42.67;;;20.50;;
19235;SDS011;9752;54.270;12.470;2022-12-11T01:03:06;36.40;;;20.00;;
19235;SDS011;9752;54.270;12.470;2022-12-11T01:08:09;39.90;;;19.13;;
19235;SDS011;9752;54.270;12.470;2022-12-11T01:13:11;32.30;;;18.97;;
19235;SDS011;9752;54.270;12.470;2022-12-11T01:18:13;34.20;;;18.70;;
19235;SDS011;9752;54.270;12.470;2022-12-11T01:23:16;35.70;;;19.00;;
19235;SDS011;9752;54.270;12.470;2022-12-11T01:28:18;36.47;;;20.37;;
19235;SDS011;9752;54.270;12.470;2022-12-11T01:33:20;36.30;;;19.47;;
19235;SDS011;9752;54.270;12.470;2022-12-11T01:38:23;37.63;;;19.20;;
19235;SDS011;9752;54.270;12.470;2022-12-11T01:43:25;31.23;;;18.83;;
19235;SDS011;9752;54.270;12.470;2022-12-11T01:48:27;42.37;;;20.70;;
19235;SDS011;9752;54.270;12.470;2022-12-11T01:53:33;44.57;;;22.20;;
19235;SDS011;9752;54.270;12.470;2022-12-11T01:58:38;40.50;;;20.23;;
19235;SDS011;9752;54.270;12.470;2022-12-11T02:03:46;35.17;;;18.73;;
19235;SDS011;9752;54.270;12.470;2022-12-11T02:08:50;35.13;;;18.47;;
19235;SDS011;9752;54.270;12.470;2022-12-11T02:13:53;36.87;;;20.83;;
19235;SDS011;9752;54.270;12.470;2022-12-11T02:19:01;43.77;;;22.37;;
19235;SDS011;9752;54.270;12.470;2022-12-11T02:24:12;45.50;;;21.83;;
19235;SDS011;9752;54.270;12.470;2022-12-11T02:29:28;31.90;;;18.00;;
19235;SDS011;9752;54.270;12.470;2022-12-11T02:34:33;36.03;;;18.70;;
19235;SDS011;9752;54.270;12.470;2022-12-11T02:39:41;34.40;;;18.30;;
19235;SDS011;9752;54.270;12.470;2022-12-11T02:44:47;35.23;;;19.63;;
19235;SDS011;9752;54.270;12.470;2022-12-11T02:49:51;34.90;;;18.07;;
19235;SDS011;9752;54.270;12.470;2022-12-11T02:54:56;40.27;;;19.27;;
19235;SDS011;9752;54.270;12.470;2022-12-11T03:00:02;33.43;;;18.43;;
19235;SDS011;9752;54.270;12.470;2022-12-11T03:05:06;29.93;;;18.17;;
19235;SDS011;9752;54.270;12.470;2022-12-11T03:10:09;31.70;;;18.53;;
19235;SDS011;9752;54.270;12.470;2022-12-11T03:15:16;30.37;;;17.33;;
19235;SDS011;9752;54.270;12.470;2022-12-11T03:20:23;33.17;;;18.23;;
19235;SDS011;9752;54.270;12.470;2022-12-11T03:25:37;30.43;;;17.40;;
19235;SDS011;9752;54.270;12.470;2022-12-11T03:30:45;35.27;;;17.97;;
19235;SDS011;9752;54.270;12.470;2022-12-11T03:35:52;33.80;;;17.80;;
19235;SDS011;9752;54.270;12.470;2022-12-11T03:40:57;29.13;;;17.57;;
19235;SDS011;9752;54.270;12.470;2022-12-11T03:46:04;34.57;;;17.23;;
19235;SDS011;9752;54.270;12.470;2022-12-11T03:51:08;27.57;;;16.70;;
19235;SDS011;9752;54.270;12.470;2022-12-11T03:56:10;32.20;;;16.50;;
19235;SDS011;9752;54.270;12.470;2022-12-11T04:01:16;35.57;;;18.63;;
19235;SDS011;9752;54.270;12.470;2022-12-11T04:06:17;32.43;;;16.93;;
19235;SDS011;9752;54.270;12.470;2022-12-11T04:11:19;29.70;;;16.80;;
19235;SDS011;9752;54.270;12.470;2022-12-11T04:16:38;33.97;;;17.87;;
19235;SDS011;9752;54.270;12.470;2022-12-11T04:21:39;30.47;;;17.70;;
19235;SDS011;9752;54.270;12.470;2022-12-11T04:26:58;25.90;;;15.23;;
19235;SDS011;9752;54.270;12.470;2022-12-11T04:32:01;39.10;;;17.73;;
19235;SDS011;9752;54.270;12.470;2022-12-11T04:37:03;25.63;;;14.40;;
19235;SDS011;9752;54.270;12.470;2022-12-11T04:42:05;27.77;;;15.20;;
19235;SDS011;9752;54.270;12.470;2022-12-11T04:47:08;26.67;;;15.83;;
19235;SDS011;9752;54.270;12.470;2022-12-11T04:52:10;27.40;;;15.10;;
19235;SDS011;9752;54.270;12.470;2022-12-11T04:57:11;28.43;;;16.23;;
19235;SDS011;9752;54.270;12.470;2022-12-11T05:02:15;29.80;;;15.63;;
19235;SDS011;9752;54.270;12.470;2022-12-11T05:07:17;31.60;;;16.03;;
19235;SDS011;9752;54.270;12.470;2022-12-11T05:12:18;28.50;;;15.40;;
19235;SDS011;9752;54.270;12.470;2022-12-11T05:17:21;30.10;;;15.50;;
19235;SDS011;9752;54.270;12.470;2022-12-11T05:22:23;28.27;;;15.33;;
19235;SDS011;9752;54.270;12.470;2022-12-11T05:27:25;28.87;;;15.97;;
19235;SDS011;9752;54.270;12.470;2022-12-11T05:32:28;25.43;;;13.73;;
19235;SDS011;9752;54.270;12.470;2022-12-11T05:37:31;28.57;;;16.20;;
19235;SDS011;9752;54.270;12.470;2022-12-11T05:42:34;30.90;;;16.70;;
19235;SDS011;9752;54.270;12.470;2022-12-11T05:47:37;29.00;;;15.20;;
19235;SDS011;9752;54.270;12.470;2022-12-11T05:52:38;25.73;;;15.17;;
19235;SDS011;9752;54.270;12.470;2022-12-11T05:57:40;28.37;;;15.87;;
19235;SDS011;9752;54.270;12.470;2022-12-11T06:02:43;24.43;;;14.57;;
19235;SDS011;9752;54.270;12.470;2022-12-11T06:07:45;33.40;;;17.13;;
19235;SDS011;9752;54.270;12.470;2022-12-11T06:12:46;30.27;;;15.50;;
19235;SDS011;9752;54.270;12.470;2022-12-11T06:17:49;26.20;;;15.17;;
19235;SDS011;9752;54.270;12.470;2022-12-11T06:22:51;27.60;;;15.63;;
19235;SDS011;9752;54.270;12.470;2022-12-11T06:27:53;27.47;;;15.43;;
19235;SDS011;9752;54.270;12.470;2022-12-11T06:32:56;31.93;;;17.83;;
19235;SDS011;9752;54.270;12.470;2022-12-11T06:37:58;30.77;;;17.37;;
19235;SDS011;9752;54.270;12.470;2022-12-11T06:43:00;20.17;;;13.13;;
19235;SDS011;9752;54.270;12.470;2022-12-11T06:48:04;29.80;;;16.23;;
19235;SDS011;9752;54.270;12.470;2022-12-11T06:53:06;28.23;;;15.60;;
19235;SDS011;9752;54.270;12.470;2022-12-11T06:58:08;25.57;;;16.10;;
19235;SDS011;9752;54.270;12.470;2022-12-11T07:03:12;23.73;;;14.70;;
19235;SDS011;9752;54.270;12.470;2022-12-11T07:08:14;23.37;;;15.13;;
19235;SDS011;9752;54.270;12.470;2022-12-11T07:13:16;21.67;;;13.50;;
19235;SDS011;9752;54.270;12.470;2022-12-11T07:18:19;25.03;;;13.63;;
19235;SDS011;9752;54.270;12.470;2022-12-11T07:23:20;23.53;;;12.97;;
19235;SDS011;9752;54.270;12.470;2022-12-11T07:28:22;19.93;;;11.80;;
19235;SDS011;9752;54.270;12.470;2022-12-11T07:33:26;18.70;;;12.00;;
19235;SDS011;9752;54.270;12.470;2022-12-11T07:38:28;20.60;;;12.07;;
19235;SDS011;9752;54.270;12.470;2022-12-11T07:43:30;23.40;;;14.07;;
19235;SDS011;9752;54.270;12.470;2022-12-11T07:48:34;19.10;;;13.00;;
19235;SDS011;9752;54.270;12.470;2022-12-11T07:53:38;18.30;;;12.33;;
19235;SDS011;9752;54.270;12.470;2022-12-11T07:58:40;17.40;;;11.77;;
19235;SDS011;9752;54.270;12.470;2022-12-11T08:03:43;21.30;;;13.17;;
19235;SDS011;9752;54.270;12.470;2022-12-11T08:08:46;21.30;;;13.10;;
19235;SDS011;9752;54.270;12.470;2022-12-11T08:13:48;19.93;;;13.57;;
19235;SDS011;9752;54.270;12.470;2022-12-11T08:18:51;23.47;;;13.17;;
19235;SDS011;9752;54.270;12.470;2022-12-11T08:23:53;20.87;;;12.87;;
19235;SDS011;9752;54.270;12.470;2022-12-11T08:28:55;20.47;;;14.63;;
19235;SDS011;9752;54.270;12.470;2022-12-11T08:33:59;26.70;;;13.90;;
19235;SDS011;9752;54.270;12.470;2022-12-11T08:39:01;26.43;;;16.37;;
19235;SDS011;9752;54.270;12.470;2022-12-11T08:44:03;22.57;;;14.97;;
19235;SDS011;9752;54.270;12.470;2022-12-11T08:49:06;25.73;;;15.10;;
19235;SDS011;9752;54.270;12.470;2022-12-11T08:54:10;29.23;;;17.10;;
19235;SDS011;9752;54.270;12.470;2022-12-11T08:59:11;29.70;;;17.60;;
19235;SDS011;9752;54.270;12.470;2022-12-11T09:04:15;24.97;;;15.63;;
19235;SDS011;9752;54.270;12.470;2022-12-11T09:09:16;25.33;;;15.67;;
19235;SDS011;9752;54.270;12.470;2022-12-11T09:14:18;31.53;;;16.67;;
19235;SDS011;9752;54.270;12.470;2022-12-11T09:19:22;33.53;;;17.07;;
19235;SDS011;9752;54.270;12.470;2022-12-11T09:24:23;31.33;;;15.83;;
19235;SDS011;9752;54.270;12.470;2022-12-11T09:29:25;38.30;;;16.43;;
19235;SDS011;9752;54.270;12.470;2022-12-11T09:34:28;36.47;;;18.97;;
19235;SDS011;9752;54.270;12.470;2022-12-11T09:39:30;41.87;;;19.83;;
19235;SDS011;9752;54.270;12.470;2022-12-11T09:44:33;37.10;;;16.47;;
19235;SDS011;9752;54.270;12.470;2022-12-11T09:49:41;36.47;;;16.70;;
19235;SDS011;9752;54.270;12.470;2022-12-11T09:54:47;31.93;;;15.17;;
19235;SDS011;9752;54.270;12.470;2022-12-11T09:59:56;24.97;;;12.90;;
19235;SDS011;9752;54.270;12.470;2022-12-11T10:05:10;23.70;;;14.60;;
19235;SDS011;9752;54.270;12.470;2022-12-11T10:10:18;27.40;;;14.97;;
19235;SDS011;9752;54.270;12.470;2022-12-11T10:15:29;21.77;;;12.10;;
19235;SDS011;9752;54.270;12.470;2022-12-11T10:20:38;27.03;;;14.57;;
19235;SDS011;9752;54.270;12.470;2022-12-11T10:25:43;15.07;;;10.10;;
19235;SDS011;9752;54.270;12.470;2022-12-11T10:30:50;18.10;;;11.60;;
19235;SDS011;9752;54.270;12.470;2022-12-11T10:36:03;10.87;;;8.20;;
19235;SDS011;9752;54.270;12.470;2022-12-11T10:41:09;10.53;;;8.90;;
19235;SDS011;9752;54.270;12.470;2022-12-11T10:46:13;11.10;;;7.67;;
19235;SDS011;9752;54.270;12.470;2022-12-11T10:51:18;9.67;;;6.93;;
19235;SDS011;9752;54.270;12.470;2022-12-11T10:56:24;7.33;;;5.73;;
19235;SDS011;9752;54.270;12.470;2022-12-11T11:01:27;6.63;;;5.77;;
19235;SDS011;9752;54.270;12.470;2022-12-11T11:06:32;5.70;;;4.20;;
19235;SDS011;9752;54.270;12.470;2022-12-11T11:11:35;4.63;;;4.20;;
19235;SDS011;9752;54.270;12.470;2022-12-11T11:16:38;6.97;;;5.00;;
19235;SDS011;9752;54.270;12.470;2022-12-11T11:21:46;6.07;;;5.40;;
19235;SDS011;9752;54.270;12.470;2022-12-11T11:26:50;7.67;;;5.77;;
19235;SDS011;9752;54.270;12.470;2022-12-11T11:31:53;5.90;;;4.63;;
19235;SDS011;9752;54.270;12.470;2022-12-11T11:36:57;7.13;;;5.50;;
19235;SDS011;9752;54.270;12.470;2022-12-11T11:42:05;6.60;;;5.83;;
19235;SDS011;9752;54.270;12.470;2022-12-11T11:47:16;5.57;;;5.00;;
19235;SDS011;9752;54.270;12.470;2022-12-11T11:52:25;5.87;;;5.27;;
19235;SDS011;9752;54.270;12.470;2022-12-11T11:57:31;5.53;;;4.20;;
19235;SDS011;9752;54.270;12.470;2022-12-11T12:02:39;4.87;;;4.47;;
19235;SDS011;9752;54.270;12.470;2022-12-11T12:07:43;5.33;;;4.90;;
19235;SDS011;9752;54.270;12.470;2022-12-11T12:12:52;6.47;;;5.87;;
19235;SDS011;9752;54.270;12.470;2022-12-11T12:18:02;8.43;;;6.13;;
19235;SDS011;9752;54.270;12.470;2022-12-11T12:23:40;6.13;;;5.63;;
19235;SDS011;9752;54.270;12.470;2022-12-11T12:28:53;6.90;;;6.30;;
19235;SDS011;9752;54.270;12.470;2022-12-11T12:34:09;5.90;;;5.50;;
19235;SDS011;9752;54.270;12.470;2022-12-11T12:39:24;6.77;;;6.20;;
19235;SDS011;9752;54.270;12.470;2022-12-11T12:44:36;7.30;;;6.70;;
19235;SDS011;9752;54.270;12.470;2022-12-11T12:49:47;6.90;;;6.37;;
19235;SDS011;9752;54.270;12.470;2022-12-11T12:54:53;6.47;;;5.97;;
19235;SDS011;9752;54.270;12.470;2022-12-11T13:00:28;6.33;;;5.83;;
19235;SDS011;9752;54.270;12.470;2022-12-11T13:05:32;5.60;;;5.00;;
19235;SDS011;9752;54.270;12.470;2022-12-11T13:10:36;6.00;;;5.50;;
19235;SDS011;9752;54.270;12.470;2022-12-11T13:15:40;5.77;;;5.37;;
19235;SDS011;9752;54.270;12.470;2022-12-11T13:20:45;5.77;;;5.37;;
19235;SDS011;9752;54.270;12.470;2022-12-11T13:25:52;6.20;;;5.70;;
19235;SDS011;9752;54.270;12.470;2022-12-11T13:30:59;5.90;;;5.50;;
19235;SDS011;9752;54.270;12.470;2022-12-11T13:36:15;5.80;;;5.27;;
19235;SDS011;9752;54.270;12.470;2022-12-11T13:41:26;6.20;;;5.70;;
19235;SDS011;9752;54.270;12.470;2022-12-11T13:46:29;7.23;;;6.30;;
19235;SDS011;9752;54.270;12.470;2022-12-11T13:51:35;6.80;;;6.10;;
19235;SDS011;9752;54.270;12.470;2022-12-11T13:56:38;6.30;;;5.90;;
19235;SDS011;9752;54.270;12.470;2022-12-11T14:01:40;5.90;;;5.40;;
19235;SDS011;9752;54.270;12.470;2022-12-11T14:06:42;6.33;;;5.77;;
19235;SDS011;9752;54.270;12.470;2022-12-11T14:11:45;6.30;;;5.80;;
19235;SDS011;9752;54.270;12.470;2022-12-11T14:16:47;6.50;;;6.00;;
19235;SDS011;9752;54.270;12.470;2022-12-11T14:21:54;5.97;;;5.37;;
19235;SDS011;9752;54.270;12.470;2022-12-11T14:26:58;6.33;;;5.73;;
19235;SDS011;9752;54.270;12.470;2022-12-11T14:32:01;6.97;;;6.17;;
19235;SDS011;9752;54.270;12.470;2022-12-11T14:37:05;6.10;;;5.60;;
19235;SDS011;9752;54.270;12.470;2022-12-11T14:42:11;6.90;;;6.20;;
19235;SDS011;9752;54.270;12.470;2022-12-11T14:47:17;8.93;;;6.43;;
19235;SDS011;9752;54.270;12.470;2022-12-11T14:52:23;6.10;;;5.60;;
19235;SDS011;9752;54.270;12.470;2022-12-11T14:57:31;7.97;;;7.27;;
19235;SDS011;9752;54.270;12.470;2022-12-11T15:02:35;9.83;;;7.93;;
19235;SDS011;9752;54.270;12.470;2022-12-11T15:07:37;8.03;;;7.30;;
19235;SDS011;9752;54.270;12.470;2022-12-11T15:12:43;9.97;;;6.80;;
19235;SDS011;9752;54.270;12.470;2022-12-11T15:17:46;7.93;;;7.03;;
19235;SDS011;9752;54.270;12.470;2022-12-11T15:22:51;9.03;;;8.13;;
19235;SDS011;9752;54.270;12.470;2022-12-11T15:27:55;7.10;;;6.40;;
19235;SDS011;9752;54.270;12.470;2022-12-11T15:38:28;11.07;;;8.50;;
19235;SDS011;9752;54.270;12.470;2022-12-11T15:43:35;8.70;;;7.80;;
19235;SDS011;9752;54.270;12.470;2022-12-11T15:48:37;11.03;;;9.43;;
19235;SDS011;9752;54.270;12.470;2022-12-11T15:53:39;12.50;;;9.00;;
19235;SDS011;9752;54.270;12.470;2022-12-11T15:58:42;12.63;;;9.57;;
19235;SDS011;9752;54.270;12.470;2022-12-11T16:03:45;18.90;;;12.80;;
19235;SDS011;9752;54.270;12.470;2022-12-11T16:08:49;9.87;;;7.70;;
19235;SDS011;9752;54.270;12.470;2022-12-11T16:13:52;8.93;;;7.50;;
19235;SDS011;9752;54.270;12.470;2022-12-11T16:18:54;10.00;;;7.17;;
19235;SDS011;9752;54.270;12.470;2022-12-11T16:23:55;8.10;;;6.90;;
19235;SDS011;9752;54.270;12.470;2022-12-11T16:28:59;7.30;;;6.60;;
19235;SDS011;9752;54.270;12.470;2022-12-11T16:34:00;10.10;;;5.97;;
19235;SDS011;9752;54.270;12.470;2022-12-11T16:39:02;6.90;;;6.17;;
19235;SDS011;9752;54.270;12.470;2022-12-11T16:44:05;9.10;;;6.57;;
19235;SDS011;9752;54.270;12.470;2022-12-11T16:49:07;7.03;;;6.13;;
19235;SDS011;9752;54.270;12.470;2022-12-11T16:54:09;8.57;;;6.67;;
19235;SDS011;9752;54.270;12.470;2022-12-11T16:59:12;8.30;;;7.50;;
19235;SDS011;9752;54.270;12.470;2022-12-11T17:04:14;8.50;;;7.70;;
19235;SDS011;9752;54.270;12.470;2022-12-11T17:09:17;8.47;;;7.53;;
19235;SDS011;9752;54.270;12.470;2022-12-11T17:14:20;8.83;;;7.40;;
19235;SDS011;9752;54.270;12.470;2022-12-11T17:19:21;9.27;;;7.30;;
19235;SDS011;9752;54.270;12.470;2022-12-11T17:24:24;8.63;;;7.73;;
19235;SDS011;9752;54.270;12.470;2022-12-11T17:29:27;8.37;;;7.40;;
19235;SDS011;9752;54.270;12.470;2022-12-11T17:34:28;13.40;;;8.13;;
19235;SDS011;9752;54.270;12.470;2022-12-11T17:39:30;8.90;;;6.90;;
19235;SDS011;9752;54.270;12.470;2022-12-11T17:44:34;7.10;;;6.40;;
19235;SDS011;9752;54.270;12.470;2022-12-11T17:49:38;13.57;;;8.77;;
19235;SDS011;9752;54.270;12.470;2022-12-11T17:54:40;8.93;;;7.20;;
19235;SDS011;9752;54.270;12.470;2022-12-11T17:59:43;9.70;;;7.43;;
19235;SDS011;9752;54.270;12.470;2022-12-11T18:04:45;8.97;;;7.60;;
19235;SDS011;9752;54.270;12.470;2022-12-11T18:09:46;10.27;;;7.60;;
19235;SDS011;9752;54.270;12.470;2022-12-11T18:14:49;7.87;;;7.07;;
19235;SDS011;9752;54.270;12.470;2022-12-11T18:19:51;9.67;;;7.03;;
19235;SDS011;9752;54.270;12.470;2022-12-11T18:24:55;8.97;;;7.07;;
19235;SDS011;9752;54.270;12.470;2022-12-11T18:29:58;7.67;;;6.80;;
19235;SDS011;9752;54.270;12.470;2022-12-11T18:35:00;8.30;;;7.17;;
19235;SDS011;9752;54.270;12.470;2022-12-11T18:40:04;8.17;;;7.27;;
19235;SDS011;9752;54.270;12.470;2022-12-11T18:45:09;8.03;;;7.07;;
19235;SDS011;9752;54.270;12.470;2022-12-11T18:50:11;9.53;;;7.97;;
19235;SDS011;9752;54.270;12.470;2022-12-11T18:55:14;9.17;;;7.70;;
19235;SDS011;9752;54.270;12.470;2022-12-11T19:00:17;8.67;;;7.63;;
19235;SDS011;9752;54.270;12.470;2022-12-11T19:05:21;7.53;;;6.50;;
19235;SDS011;9752;54.270;12.470;2022-12-11T19:10:22;10.23;;;7.37;;
19235;SDS011;9752;54.270;12.470;2022-12-11T19:15:27;11.87;;;7.70;;
19235;SDS011;9752;54.270;12.470;2022-12-11T19:20:29;9.57;;;7.23;;
19235;SDS011;9752;54.270;12.470;2022-12-11T19:25:31;10.43;;;7.77;;
19235;SDS011;9752;54.270;12.470;2022-12-11T19:30:34;8.80;;;6.53;;
19235;SDS011;9752;54.270;12.470;2022-12-11T19:35:36;9.07;;;7.00;;
19235;SDS011;9752;54.270;12.470;2022-12-11T19:40:38;9.83;;;7.20;;
19235;SDS011;9752;54.270;12.470;2022-12-11T19:45:42;8.67;;;6.97;;
19235;SDS011;9752;54.270;12.470;2022-12-11T19:50:45;9.13;;;7.23;;
19235;SDS011;9752;54.270;12.470;2022-12-11T19:55:48;8.97;;;8.07;;
19235;SDS011;9752;54.270;12.470;2022-12-11T20:00:52;8.50;;;7.20;;
19235;SDS011;9752;54.270;12.470;2022-12-11T20:05:58;9.43;;;7.17;;
19235;SDS011;9752;54.270;12.470;2022-12-11T20:11:02;11.60;;;8.07;;
19235;SDS011;9752;54.270;12.470;2022-12-11T20:16:07;12.40;;;8.60;;
19235;SDS011;9752;54.270;12.470;2022-12-11T20:21:10;14.17;;;10.03;;
19235;SDS011;9752;54.270;12.470;2022-12-11T20:26:15;16.37;;;10.33;;
19235;SDS011;9752;54.270;12.470;2022-12-11T20:31:22;14.10;;;10.77;;
19235;SDS011;9752;54.270;12.470;2022-12-11T20:36:26;15.27;;;10.50;;
19235;SDS011;9752;54.270;12.470;2022-12-11T20:41:27;16.40;;;11.13;;
19235;SDS011;9752;54.270;12.470;2022-12-11T20:46:31;15.13;;;11.43;;
19235;SDS011;9752;54.270;12.470;2022-12-11T20:51:32;17.63;;;12.17;;
19235;SDS011;9752;54.270;12.470;2022-12-11T20:56:34;18.97;;;11.77;;
19235;SDS011;9752;54.270;12.470;2022-12-11T21:01:37;16.57;;;11.30;;
19235;SDS011;9752;54.270;12.470;2022-12-11T21:06:40;16.63;;;12.20;;
19235;SDS011;9752;54.270;12.470;2022-12-11T21:11:42;17.20;;;11.87;;
19235;SDS011;9752;54.270;12.470;2022-12-11T21:16:45;19.07;;;12.83;;
19235;SDS011;9752;54.270;12.470;2022-12-11T21:21:47;12.97;;;9.87;;
19235;SDS011;9752;54.270;12.470;2022-12-11T21:26:49;14.07;;;10.60;;
19235;SDS011;9752;54.270;12.470;2022-12-11T21:31:52;17.20;;;11.40;;
19235;SDS011;9752;54.270;12.470;2022-12-11T21:36:55;11.57;;;10.37;;
19235;SDS011;9752;54.270;12.470;2022-12-11T21:41:57;13.73;;;10.57;;
19235;SDS011;9752;54.270;12.470;2022-12-11T21:47:01;14.60;;;11.73;;
19235;SDS011;9752;54.270;12.470;2022-12-11T21:52:02;12.77;;;10.07;;
19235;SDS011;9752;54.270;12.470;2022-12-11T21:57:04;13.43;;;10.20;;
19235;SDS011;9752;54.270;12.470;2022-12-11T22:02:08;11.00;;;9.83;;
19235;SDS011;9752;54.270;12.470;2022-12-11T22:07:11;13.67;;;9.33;;
19235;SDS011;9752;54.270;12.470;2022-12-11T22:12:16;12.70;;;9.47;;
19235;SDS011;9752;54.270;12.470;2022-12-11T22:17:24;12.87;;;8.47;;
19235;SDS011;9752;54.270;12.470;2022-12-11T22:22:25;11.60;;;9.63;;
19235;SDS011;9752;54.270;12.470;2022-12-11T22:27:27;12.03;;;9.37;;
19235;SDS011;9752;54.270;12.470;2022-12-11T22:32:31;11.87;;;9.53;;
19235;SDS011;9752;54.270;12.470;2022-12-11T22:37:32;10.83;;;9.33;;
19235;SDS011;9752;54.270;12.470;2022-12-11T22:42:34;11.33;;;8.97;;
19235;SDS011;9752;54.270;12.470;2022-12-11T22:47:37;13.33;;;10.17;;
19235;SDS011;9752;54.270;12.470;2022-12-11T22:52:39;13.90;;;10.07;;
19235;SDS011;9752;54.270;12.470;2022-12-11T22:57:41;13.43;;;9.17;;
19235;SDS011;9752;54.270;12.470;2022-12-11T23:02:44;12.73;;;8.53;;
19235;SDS011;9752;54.270;12.470;2022-12-11T23:07:46;10.40;;;7.47;;
19235;SDS011;9752;54.270;12.470;2022-12-11T23:12:47;10.90;;;8.33;;
19235;SDS011;9752;54.270;12.470;2022-12-11T23:17:50;11.43;;;9.10;;
19235;SDS011;9752;54.270;12.470;2022-12-11T23:22:52;9.83;;;7.90;;
19235;SDS011;9752;54.270;12.470;2022-12-11T23:27:54;11.03;;;8.47;;
19235;SDS011;9752;54.270;12.470;2022-12-11T23:32:57;10.43;;;8.30;;
19235;SDS011;9752;54.270;12.470;2022-12-11T23:37:59;9.70;;;8.10;;
19235;SDS011;9752;54.270;12.470;2022-12-11T23:43:00;11.83;;;8.50;;
19235;SDS011;9752;54.270;12.470;2022-12-11T23:48:03;9.53;;;7.80;;
19235;SDS011;9752;54.270;12.470;2022-12-11T23:53:05;11.93;;;8.03;;
19235;SDS011;9752;54.270;12.470;2022-12-11T23:58:07;11.83;;;8.43;;
